Polk Aaf Information

FAA: POE - ICAO: KPOE

Polk Aaf (Airport) Location

State Louisiana
County Vernon
City Fort Polk
Polk Aaf (Airport) is 7 miles southeast of Fort Polk, LA.
Latitude 31-02-41.2165N
Longitude 093-11-29.9115W
Elevation 330ft

Polk Aaf METARs

METAR KPOE 261158Z AUTO 00000KT 9SM CLR 16/15 A2993 RMK AO2 SLP135 70011 T01580153 10197 20151 53009
Altimeter 29.93"
Temperature 15.8°C (60.4°F)
Wind 0° at 0KT
Clouds Skies are clear.
Visibility 9.0mi
Time observed: 2022-05-26T11:58:00Z

Polk Aaf (Airport) Details

Status Operational
Activation N/A
Ownership Military - Army
Usage Private
Chart HOUSTON
ATC on-site Yes
Beacon schedule sunset-sunrise
Beacon color clear green

Polk Aaf (Airport) Contacts

Owner U.S.ARMY
Owner address AVIATION DIVISION DPTM, FT FOLK, LA 71459-5000
Owner phone 318-535-2314
Manager GENE R. LEJEUNE
Manager address 575 N. AVE K, CROWLEY, LA 70526-4562
Manager phone (337) 458-1947

Polk Aaf Radio Frequencies

Polk Aaf (Airport) Radio Frequencies

UNICOM N/A
Common traffic advisory frequency (CTAF) 119